createdAt,value
2022-10-16T00:01:42.280Z,1.30
2022-10-16T00:04:11.770Z,4.37
2022-10-16T00:06:40.391Z,2.10
2022-10-16T00:09:09.317Z,5.40
2022-10-16T00:11:41.335Z,2.57
2022-10-16T00:14:12.347Z,1.93
2022-10-16T00:16:40.738Z,2.30
2022-10-16T00:19:08.999Z,2.73
2022-10-16T00:21:37.288Z,2.63
2022-10-16T00:24:09.401Z,1.80
2022-10-16T00:26:40.421Z,1.47
2022-10-16T00:29:09.150Z,1.80
2022-10-16T00:31:37.409Z,1.50
2022-10-16T00:34:05.780Z,1.90
2022-10-16T00:36:34.382Z,1.73
2022-10-16T00:39:03.202Z,2.43
2022-10-16T00:41:32.999Z,5.13
2022-10-16T00:44:05.612Z,1.60
2022-10-16T00:46:39.650Z,2.03
2022-10-16T00:49:10.684Z,1.67
2022-10-16T00:51:41.967Z,3.30
2022-10-16T00:54:15.069Z,1.57
2022-10-16T00:56:44.253Z,1.40
2022-10-16T00:59:18.952Z,3.57
2022-10-16T01:01:47.397Z,1.50
2022-10-16T01:04:15.807Z,1.40
2022-10-16T01:06:50.972Z,1.33
2022-10-16T01:09:25.012Z,2.80
2022-10-16T01:12:04.527Z,1.43
2022-10-16T01:14:41.731Z,1.63
2022-10-16T01:17:14.582Z,1.57
2022-10-16T01:20:09.858Z,1.53
2022-10-16T01:22:46.562Z,1.73
2022-10-16T01:25:24.288Z,1.50
2022-10-16T01:27:54.771Z,1.73
2022-10-16T01:30:28.106Z,2.40
2022-10-16T01:33:01.534Z,3.30
2022-10-16T01:35:34.285Z,1.67
2022-10-16T01:38:07.377Z,1.87
2022-10-16T01:40:38.521Z,1.60
2022-10-16T01:43:13.326Z,1.97
2022-10-16T01:45:43.125Z,2.53
2022-10-16T01:48:16.305Z,1.80
2022-10-16T01:50:46.832Z,5.80
2022-10-16T01:53:18.038Z,1.83
2022-10-16T01:55:50.038Z,1.90
2022-10-16T01:58:19.957Z,3.07
2022-10-16T02:00:49.901Z,1.80
2022-10-16T02:03:22.146Z,2.27
2022-10-16T02:05:53.950Z,1.90
2022-10-16T02:08:27.180Z,2.27
2022-10-16T02:10:58.973Z,2.30
2022-10-16T02:13:36.039Z,2.23
2022-10-16T02:16:04.377Z,2.07
2022-10-16T02:18:33.332Z,2.10
2022-10-16T02:21:04.560Z,2.20
2022-10-16T02:23:40.864Z,2.50
2022-10-16T02:26:14.633Z,4.20
2022-10-16T02:28:49.131Z,3.00
2022-10-16T02:31:25.487Z,2.50
2022-10-16T02:33:55.032Z,2.10
2022-10-16T02:36:23.946Z,2.40
2022-10-16T02:38:52.509Z,4.03
2022-10-16T02:41:22.595Z,2.23
2022-10-16T02:43:52.216Z,2.37
2022-10-16T02:46:21.259Z,2.40
2022-10-16T02:48:49.513Z,4.63
2022-10-16T02:51:17.655Z,2.83
2022-10-16T02:53:46.512Z,2.63
2022-10-16T02:56:14.736Z,2.37
2022-10-16T02:58:43.129Z,2.60
2022-10-16T03:01:13.924Z,2.60
2022-10-16T03:03:42.160Z,2.70
2022-10-16T03:06:12.815Z,3.23
2022-10-16T03:08:41.360Z,2.67
2022-10-16T03:11:09.710Z,3.50
2022-10-16T03:13:38.320Z,3.23
2022-10-16T03:16:06.819Z,4.87
2022-10-16T03:18:36.648Z,2.30
2022-10-16T03:21:05.314Z,3.07
2022-10-16T03:23:33.546Z,2.47
2022-10-16T03:26:01.813Z,4.63
2022-10-16T03:28:30.119Z,3.50
2022-10-16T03:30:58.605Z,2.50
2022-10-16T03:33:26.872Z,3.30
2022-10-16T03:35:56.975Z,2.57
2022-10-16T03:38:25.433Z,2.80
2022-10-16T03:40:53.846Z,5.30
2022-10-16T03:43:22.318Z,4.03
2022-10-16T03:45:52.080Z,2.80
2022-10-16T03:48:20.510Z,2.60
2022-10-16T03:50:49.364Z,3.20
2022-10-16T03:53:18.933Z,2.60
2022-10-16T03:55:47.529Z,2.93
2022-10-16T03:58:16.053Z,2.83
2022-10-16T04:00:44.784Z,3.63
2022-10-16T04:03:13.413Z,3.87
2022-10-16T04:05:42.104Z,3.03
2022-10-16T04:08:10.434Z,5.80
2022-10-16T04:10:40.609Z,2.83
2022-10-16T04:13:09.317Z,5.53
2022-10-16T04:15:37.678Z,4.47
2022-10-16T04:18:06.478Z,3.23
2022-10-16T04:20:34.770Z,3.23
2022-10-16T04:23:03.369Z,6.23
2022-10-16T04:25:33.232Z,3.67
2022-10-16T04:28:02.931Z,3.17
2022-10-16T04:30:31.256Z,6.17
2022-10-16T04:35:27.947Z,2.73
2022-10-16T04:37:56.393Z,3.83
2022-10-16T04:40:27.070Z,3.60
2022-10-16T04:42:55.403Z,3.90
2022-10-16T04:45:25.217Z,4.17
2022-10-16T04:47:53.476Z,3.27
2022-10-16T04:50:21.777Z,5.00
2022-10-16T04:52:50.154Z,3.93
2022-10-16T04:55:18.364Z,2.93
2022-10-16T04:57:46.582Z,3.20
2022-10-16T05:00:15.435Z,3.40
2022-10-16T05:02:45.855Z,5.23
2022-10-16T05:05:15.438Z,3.87
2022-10-16T05:07:44.609Z,2.90
2022-10-16T05:10:12.785Z,3.27
2022-10-16T05:12:41.122Z,3.10
2022-10-16T05:15:10.632Z,3.80
2022-10-16T05:17:42.460Z,3.07
2022-10-16T05:20:15.918Z,3.43
2022-10-16T05:22:44.221Z,2.77
2022-10-16T05:25:12.619Z,2.93
2022-10-16T05:27:40.900Z,3.10
2022-10-16T05:30:12.350Z,3.43
2022-10-16T05:32:41.206Z,3.23
2022-10-16T05:35:12.882Z,4.93
2022-10-16T05:37:42.734Z,4.07
2022-10-16T05:40:11.672Z,6.60
2022-10-16T05:42:39.878Z,3.27
2022-10-16T05:45:10.747Z,3.47
2022-10-16T05:47:39.169Z,3.53
2022-10-16T05:50:08.223Z,3.47
2022-10-16T05:52:36.863Z,4.97
2022-10-16T05:55:07.368Z,4.70
2022-10-16T05:57:35.609Z,5.37
2022-10-16T06:00:04.352Z,7.73
2022-10-16T06:02:32.628Z,3.77
2022-10-16T06:05:00.974Z,3.47
2022-10-16T06:07:29.766Z,5.60
2022-10-16T06:09:58.329Z,3.33
2022-10-16T06:12:29.292Z,3.50
2022-10-16T06:14:57.595Z,4.80
2022-10-16T06:17:26.751Z,4.97
2022-10-16T06:19:55.032Z,4.90
2022-10-16T06:22:23.304Z,5.00
2022-10-16T06:24:51.604Z,3.87
2022-10-16T06:27:19.991Z,5.27
2022-10-16T06:29:50.020Z,3.67
2022-10-16T06:32:18.204Z,4.80
2022-10-16T06:34:46.436Z,6.67
2022-10-16T06:37:15.000Z,5.50
2022-10-16T06:39:43.616Z,4.00
2022-10-16T06:42:11.837Z,4.00
2022-10-16T06:44:42.536Z,5.23
2022-10-16T06:47:12.381Z,5.23
2022-10-16T06:49:40.567Z,3.87
2022-10-16T06:52:08.919Z,4.33
2022-10-16T06:54:42.399Z,5.07
2022-10-16T06:57:11.209Z,3.40
2022-10-16T06:59:39.579Z,3.40
2022-10-16T07:02:08.076Z,3.37
2022-10-16T07:04:38.440Z,3.43
2022-10-16T07:07:08.691Z,3.50
2022-10-16T07:09:39.963Z,4.10
2022-10-16T07:12:08.451Z,5.30
2022-10-16T07:14:36.738Z,5.77
2022-10-16T07:17:05.131Z,5.00
2022-10-16T07:19:34.444Z,5.97
2022-10-16T07:22:04.277Z,4.63
2022-10-16T07:24:32.559Z,3.30
2022-10-16T07:27:00.901Z,3.00
2022-10-16T07:29:29.068Z,2.90
2022-10-16T07:31:57.386Z,3.00
2022-10-16T07:34:27.112Z,3.87
2022-10-16T07:36:55.407Z,3.50
2022-10-16T07:39:25.082Z,3.70
2022-10-16T07:41:53.501Z,5.07
2022-10-16T07:44:21.830Z,3.23
2022-10-16T07:46:50.118Z,2.90
2022-10-16T07:49:18.419Z,2.47
2022-10-16T07:51:46.667Z,3.57
2022-10-16T07:54:14.937Z,3.53
2022-10-16T07:56:44.977Z,3.03
2022-10-16T07:59:13.575Z,6.17
2022-10-16T08:01:43.184Z,3.10
2022-10-16T08:04:11.835Z,2.83
2022-10-16T08:06:41.833Z,3.50
2022-10-16T08:09:13.720Z,2.83
2022-10-16T08:11:42.007Z,4.60
2022-10-16T08:14:11.702Z,3.27
2022-10-16T08:16:40.131Z,3.47
2022-10-16T08:19:08.442Z,5.13
2022-10-16T08:21:36.848Z,2.63
2022-10-16T08:24:05.353Z,2.37
2022-10-16T08:26:33.549Z,2.40
2022-10-16T08:29:02.005Z,2.47
2022-10-16T08:31:31.995Z,3.13
2022-10-16T08:34:00.202Z,2.43
2022-10-16T08:36:28.563Z,2.60
2022-10-16T08:38:56.785Z,2.80
2022-10-16T08:42:03.600Z,2.53
2022-10-16T08:45:04.157Z,4.53
2022-10-16T08:47:47.517Z,4.80
2022-10-16T08:50:23.723Z,2.20
2022-10-16T08:52:52.333Z,3.70
2022-10-16T08:55:33.380Z,5.63
2022-10-16T08:58:02.573Z,4.10
2022-10-16T09:00:31.974Z,6.57
2022-10-16T09:03:13.369Z,3.17
2022-10-16T09:05:59.860Z,5.53
2022-10-16T09:08:37.515Z,5.03
2022-10-16T09:11:16.352Z,3.77
2022-10-16T09:13:52.528Z,4.20
2022-10-16T09:16:26.098Z,2.27
2022-10-16T09:19:06.539Z,4.77
2022-10-16T09:21:40.554Z,1.83
2022-10-16T09:24:15.493Z,6.27
2022-10-16T09:26:43.913Z,4.80
2022-10-16T09:29:14.818Z,6.10
2022-10-16T09:31:43.750Z,3.70
2022-10-16T09:34:26.215Z,3.47
2022-10-16T09:36:54.507Z,6.90
2022-10-16T09:39:22.702Z,6.10
2022-10-16T09:41:51.136Z,3.73
2022-10-16T09:44:24.557Z,2.00
2022-10-16T09:47:03.763Z,10.50
2022-10-16T09:49:33.625Z,6.17
2022-10-16T09:52:13.275Z,7.17
2022-10-16T09:54:54.785Z,3.13
2022-10-16T09:57:24.256Z,5.93
2022-10-16T09:59:54.166Z,3.20
2022-10-16T10:02:31.460Z,3.67
2022-10-16T10:05:01.572Z,5.07
2022-10-16T10:07:37.443Z,2.77
2022-10-16T10:10:08.327Z,4.17
2022-10-16T10:12:38.127Z,3.80
2022-10-16T10:15:09.314Z,3.13
2022-10-16T10:17:48.768Z,4.80
2022-10-16T10:20:26.384Z,3.53
2022-10-16T10:22:55.791Z,4.03
2022-10-16T10:25:48.322Z,3.27
2022-10-16T10:28:27.482Z,3.70
2022-10-16T10:31:02.672Z,8.00
2022-10-16T10:33:41.078Z,2.90
2022-10-16T10:36:24.826Z,3.97
2022-10-16T10:38:57.993Z,4.63
2022-10-16T10:41:53.515Z,2.20
2022-10-16T10:44:32.894Z,2.57
2022-10-16T10:47:14.742Z,2.17
2022-10-16T10:49:55.520Z,2.33
2022-10-16T10:52:44.534Z,8.43
2022-10-16T10:55:21.617Z,6.87
2022-10-16T10:58:03.927Z,4.07
2022-10-16T11:00:44.286Z,3.63
2022-10-16T11:03:26.533Z,3.77
2022-10-16T11:05:58.990Z,6.07
2022-10-16T11:08:34.785Z,3.80
2022-10-16T11:11:06.944Z,3.70
2022-10-16T11:13:42.769Z,4.60
2022-10-16T11:16:20.610Z,5.03
2022-10-16T11:18:57.298Z,3.70
2022-10-16T11:21:31.069Z,5.60
2022-10-16T11:24:08.478Z,4.60
2022-10-16T11:26:41.730Z,3.30
2022-10-16T11:29:17.822Z,6.37
2022-10-16T11:31:51.006Z,5.07
2022-10-16T11:34:24.769Z,2.33
2022-10-16T11:36:58.066Z,4.43
2022-10-16T11:39:30.385Z,2.13
2022-10-16T11:42:05.413Z,3.83
2022-10-16T11:44:46.325Z,3.67
2022-10-16T11:47:53.828Z,4.20
2022-10-16T11:50:24.871Z,5.03
2022-10-16T11:53:01.475Z,2.37
2022-10-16T11:55:36.403Z,6.17
2022-10-16T11:58:10.439Z,4.67
2022-10-16T12:00:47.750Z,3.17
2022-10-16T12:03:23.886Z,4.97
2022-10-16T12:06:02.466Z,3.70
2022-10-16T12:08:31.164Z,2.73
2022-10-16T12:11:10.706Z,3.37
2022-10-16T12:13:40.795Z,2.60
2022-10-16T12:16:25.171Z,3.60
2022-10-16T12:19:12.790Z,5.70
2022-10-16T12:21:41.591Z,6.13
2022-10-16T12:24:26.189Z,1.60
2022-10-16T12:26:56.217Z,4.17
2022-10-16T12:29:34.526Z,4.43
2022-10-16T12:32:04.531Z,4.77
2022-10-16T12:34:41.472Z,2.93
2022-10-16T12:37:16.916Z,3.10
2022-10-16T12:39:48.919Z,1.97
2022-10-16T12:42:34.424Z,2.60
2022-10-16T12:45:04.227Z,2.07
2022-10-16T12:47:49.065Z,3.43
2022-10-16T12:50:36.134Z,3.53
2022-10-16T12:53:06.367Z,2.17
2022-10-16T12:55:46.228Z,2.77
2022-10-16T12:58:46.645Z,3.80
2022-10-16T13:01:32.542Z,2.53
2022-10-16T13:04:32.757Z,1.20
2022-10-16T13:07:14.887Z,2.03
2022-10-16T13:09:54.716Z,1.43
2022-10-16T13:12:50.359Z,2.77
2022-10-16T13:15:50.957Z,1.30
2022-10-16T13:18:26.362Z,1.27
2022-10-16T13:21:08.583Z,1.63
2022-10-16T13:26:25.452Z,2.60
2022-10-16T13:28:53.926Z,1.87
2022-10-16T13:31:26.350Z,1.80
2022-10-16T13:34:00.009Z,3.40
2022-10-16T13:36:30.157Z,2.50
2022-10-16T13:39:14.671Z,5.43
2022-10-16T13:41:43.403Z,1.43
2022-10-16T13:44:17.383Z,1.30
2022-10-16T13:46:46.993Z,1.97
2022-10-16T13:49:17.805Z,1.70
2022-10-16T13:51:57.652Z,1.50
2022-10-16T13:54:26.643Z,1.77
2022-10-16T13:57:03.014Z,2.10
2022-10-16T13:59:40.145Z,3.47
2022-10-16T14:02:20.607Z,3.50
2022-10-16T14:04:49.834Z,2.50
2022-10-16T14:07:24.711Z,2.77
2022-10-16T14:09:54.465Z,1.53
2022-10-16T14:12:27.279Z,3.90
2022-10-16T14:14:59.740Z,4.17
2022-10-16T14:17:31.877Z,4.13
2022-10-16T14:20:05.460Z,1.73
2022-10-16T14:22:38.575Z,2.47
2022-10-16T14:25:27.762Z,2.07
2022-10-16T14:28:05.098Z,1.97
2022-10-16T14:30:36.392Z,3.13
2022-10-16T14:33:07.746Z,1.73
2022-10-16T14:35:38.364Z,3.27
2022-10-16T14:38:08.249Z,3.40
2022-10-16T14:40:38.996Z,1.67
2022-10-16T14:43:07.803Z,3.73
2022-10-16T14:45:37.445Z,1.97
2022-10-16T14:48:19.622Z,4.23
2022-10-16T14:50:48.681Z,4.20
2022-10-16T14:53:17.279Z,2.43
2022-10-16T14:55:46.113Z,1.53
2022-10-16T14:58:18.375Z,3.23
2022-10-16T15:00:47.014Z,2.83
2022-10-16T15:03:16.665Z,3.23
2022-10-16T15:05:45.341Z,3.13
2022-10-16T15:08:14.179Z,2.67
2022-10-16T15:10:44.902Z,5.50
2022-10-16T15:13:15.104Z,5.30
2022-10-16T15:15:45.954Z,3.07
2022-10-16T15:18:15.844Z,2.53
2022-10-16T15:20:45.514Z,2.60
2022-10-16T15:23:17.126Z,2.10
2022-10-16T15:25:46.899Z,4.77
2022-10-16T15:28:16.517Z,1.63
2022-10-16T15:30:46.479Z,2.27
2022-10-16T15:33:17.220Z,1.93
2022-10-16T15:35:49.093Z,3.00
2022-10-16T15:38:18.378Z,2.30
2022-10-16T15:40:48.020Z,2.40
2022-10-16T15:43:16.386Z,4.07
2022-10-16T15:45:44.666Z,2.57
2022-10-16T15:48:14.537Z,2.73
2022-10-16T15:53:14.259Z,3.07
2022-10-16T15:55:42.434Z,2.07
2022-10-16T15:58:10.747Z,3.63
2022-10-16T16:00:39.433Z,2.50
2022-10-16T16:03:07.641Z,4.30
2022-10-16T16:05:42.764Z,4.60
2022-10-16T16:08:15.353Z,1.80
2022-10-16T16:10:43.667Z,3.63
2022-10-16T16:13:12.093Z,1.93
2022-10-16T16:15:41.245Z,1.80
2022-10-16T16:18:10.987Z,2.00
2022-10-16T16:20:39.602Z,1.90
2022-10-16T16:23:07.754Z,5.83
2022-10-16T16:25:38.585Z,5.80
2022-10-16T16:28:08.120Z,3.03
2022-10-16T16:30:36.276Z,4.27
2022-10-16T16:33:04.840Z,2.50
2022-10-16T16:35:33.078Z,2.73
2022-10-16T16:38:01.153Z,4.67
2022-10-16T16:40:29.940Z,2.40
2022-10-16T16:42:59.402Z,3.70
2022-10-16T16:47:56.675Z,2.47
2022-10-16T16:50:24.939Z,3.37
2022-10-16T16:52:53.152Z,4.23
2022-10-16T16:55:21.453Z,2.50
2022-10-16T16:57:50.759Z,5.07
2022-10-16T17:00:20.417Z,6.87
2022-10-16T17:02:51.346Z,2.77
2022-10-16T17:05:20.044Z,5.87
2022-10-16T17:07:48.173Z,3.33
2022-10-16T17:10:16.834Z,2.67
2022-10-16T17:12:45.201Z,5.33
2022-10-16T17:15:13.464Z,4.70
2022-10-16T17:17:43.462Z,2.60
2022-10-16T17:20:12.421Z,3.83
2022-10-16T17:22:42.562Z,5.13
2022-10-16T17:25:11.134Z,7.63
2022-10-16T17:27:42.230Z,7.50
2022-10-16T17:30:11.254Z,9.47
2022-10-16T17:32:39.450Z,8.67
2022-10-16T17:35:09.941Z,10.17
2022-10-16T17:37:38.404Z,8.67
2022-10-16T17:40:07.470Z,6.97
2022-10-16T17:42:35.611Z,9.37
2022-10-16T17:45:04.110Z,6.50
2022-10-16T17:47:32.400Z,6.23
2022-10-16T17:50:00.583Z,11.67
2022-10-16T17:52:30.472Z,11.50
2022-10-16T17:54:59.300Z,14.67
2022-10-16T17:57:27.500Z,9.40
2022-10-16T17:59:56.229Z,8.80
2022-10-16T18:02:24.795Z,8.27
2022-10-16T18:04:53.163Z,6.50
2022-10-16T18:07:21.676Z,6.43
2022-10-16T18:10:10.898Z,9.63
2022-10-16T18:12:39.832Z,10.67
2022-10-16T18:15:09.832Z,11.70
2022-10-16T18:17:38.673Z,7.00
2022-10-16T18:20:09.213Z,8.47
2022-10-16T18:22:37.633Z,13.37
2022-10-16T18:25:08.245Z,12.20
2022-10-16T18:27:36.441Z,11.30
2022-10-16T18:30:05.240Z,16.13
2022-10-16T18:32:33.463Z,13.63
2022-10-16T18:35:01.665Z,22.03
2022-10-16T18:37:30.275Z,12.63
2022-10-16T18:39:58.783Z,14.00
2022-10-16T18:42:28.432Z,9.10
2022-10-16T18:44:56.609Z,11.20
2022-10-16T18:47:25.173Z,10.97
2022-10-16T18:49:53.880Z,12.57
2022-10-16T18:52:23.897Z,8.87
2022-10-16T18:54:56.223Z,7.83
2022-10-16T18:57:25.028Z,9.93
2022-10-16T18:59:54.717Z,13.93
2022-10-16T19:02:23.160Z,12.60
2022-10-16T19:04:51.503Z,7.47
2022-10-16T19:07:19.744Z,12.93
2022-10-16T19:09:47.932Z,13.57
2022-10-16T19:12:16.218Z,9.80
2022-10-16T19:14:44.358Z,9.13
2022-10-16T19:17:14.261Z,13.80
2022-10-16T19:19:42.734Z,10.10
2022-10-16T19:22:17.282Z,12.00
2022-10-16T19:24:45.939Z,8.27
2022-10-16T19:27:14.053Z,10.70
2022-10-16T19:29:42.141Z,13.70
2022-10-16T19:32:10.374Z,9.53
2022-10-16T19:34:39.889Z,14.03
2022-10-16T19:37:10.651Z,11.57
2022-10-16T19:39:39.003Z,11.23
2022-10-16T19:42:07.129Z,15.37
2022-10-16T19:44:35.302Z,14.50
2022-10-16T19:47:03.506Z,13.33
2022-10-16T19:49:31.964Z,12.27
2022-10-16T19:52:01.426Z,13.90
2022-10-16T19:54:29.724Z,13.33
2022-10-16T19:57:00.177Z,11.13
2022-10-16T19:59:28.558Z,14.33
2022-10-16T20:01:57.125Z,10.20
2022-10-16T20:04:25.371Z,8.83
2022-10-16T20:06:53.520Z,14.10
2022-10-16T20:09:23.541Z,13.53
2022-10-16T20:11:51.644Z,14.67
2022-10-16T20:14:19.743Z,13.57
2022-10-16T20:16:48.229Z,11.00
2022-10-16T20:19:16.326Z,14.57
2022-10-16T20:21:44.519Z,12.00
2022-10-16T20:24:12.758Z,14.33
2022-10-16T20:26:42.376Z,13.80
2022-10-16T20:29:10.847Z,10.57
2022-10-16T20:31:39.871Z,13.13
2022-10-16T20:34:09.852Z,9.43
2022-10-16T20:36:40.350Z,13.27
2022-10-16T20:39:09.319Z,9.40
2022-10-16T20:41:37.982Z,9.30
2022-10-16T20:44:10.252Z,12.90
2022-10-16T20:46:38.371Z,10.80
2022-10-16T20:49:11.516Z,10.20
2022-10-16T20:51:53.358Z,9.37
2022-10-16T20:54:21.514Z,15.57
2022-10-16T20:56:49.772Z,14.70
2022-10-16T20:59:19.367Z,16.23
2022-10-16T21:01:47.638Z,13.53
2022-10-16T21:04:16.250Z,13.70
2022-10-16T21:06:45.621Z,11.07
2022-10-16T21:09:13.873Z,13.73
2022-10-16T21:11:42.237Z,13.97
2022-10-16T21:14:11.030Z,11.70
2022-10-16T21:16:40.696Z,13.90
2022-10-16T21:19:09.247Z,10.90
2022-10-16T21:21:39.069Z,11.00
2022-10-16T21:24:12.183Z,10.13
2022-10-16T21:26:43.822Z,10.63
2022-10-16T21:29:12.799Z,11.37
2022-10-16T21:31:42.841Z,10.23
2022-10-16T21:34:11.529Z,12.83
2022-10-16T21:36:42.215Z,10.10
2022-10-16T21:39:12.616Z,12.47
2022-10-16T21:41:42.149Z,10.63
2022-10-16T21:44:10.625Z,14.60
2022-10-16T21:46:43.911Z,12.17
2022-10-16T21:49:14.826Z,9.73
2022-10-16T21:51:46.628Z,10.30
2022-10-16T21:54:16.594Z,12.70
2022-10-16T21:56:44.995Z,10.63
2022-10-16T21:59:14.614Z,8.80
2022-10-16T22:01:44.792Z,10.67
2022-10-16T22:04:14.123Z,11.57
2022-10-16T22:06:42.691Z,9.43
2022-10-16T22:09:14.302Z,10.53
2022-10-16T22:11:44.788Z,11.87
2022-10-16T22:14:15.005Z,8.33
2022-10-16T22:16:45.525Z,12.00
2022-10-16T22:19:14.930Z,9.57
2022-10-16T22:21:46.061Z,10.17
2022-10-16T22:24:15.655Z,9.27
2022-10-16T22:26:44.274Z,11.73
2022-10-16T22:29:13.792Z,12.20
2022-10-16T22:31:42.300Z,11.83
2022-10-16T22:34:14.953Z,8.43
2022-10-16T22:36:43.611Z,8.70
2022-10-16T22:39:12.156Z,11.97
2022-10-16T22:41:40.529Z,11.27
2022-10-16T22:44:12.874Z,10.60
2022-10-16T22:46:41.490Z,11.33
2022-10-16T22:49:09.690Z,14.37
2022-10-16T22:51:39.289Z,10.03
2022-10-16T22:54:07.639Z,14.60
2022-10-16T22:56:35.794Z,13.70
2022-10-16T22:59:04.138Z,12.17
2022-10-16T23:01:35.335Z,16.30
2022-10-16T23:04:03.747Z,12.73
2022-10-16T23:06:32.472Z,12.53
2022-10-16T23:09:03.362Z,11.40
2022-10-16T23:11:31.856Z,10.10
2022-10-16T23:14:00.159Z,13.77
2022-10-16T23:16:28.405Z,14.73
2022-10-16T23:18:56.642Z,13.33
2022-10-16T23:21:26.763Z,14.23
2022-10-16T23:23:55.548Z,12.17
2022-10-16T23:26:27.351Z,11.10
2022-10-16T23:28:57.368Z,13.00
2022-10-16T23:31:26.917Z,12.17
2022-10-16T23:33:55.522Z,13.73
2022-10-16T23:36:24.606Z,12.60
2022-10-16T23:38:53.251Z,10.83
2022-10-16T23:41:21.969Z,14.47
2022-10-16T23:43:52.552Z,19.93
2022-10-16T23:46:20.840Z,13.07
2022-10-16T23:48:49.266Z,11.80
2022-10-16T23:51:20.188Z,13.67
2022-10-16T23:53:51.105Z,16.33
2022-10-16T23:56:19.579Z,13.57
2022-10-16T23:58:48.050Z,10.53
